< < Back
Terminal Aerodrome Forecast


Current Version              Previous Versions:   1  2  3  4  5  6  7  8  9  

Terminal Aerodrome Forecast

312
FTUS42 KGSP 280846 AAA
TAFCLT
TAF AMD
KCLT 280846Z 2809/2906 32006KT P6SM BKN060 OVC100
     FM280930 33007KT P6SM FEW060 SCT250
     FM281600 33009G16KT P6SM FEW250=

Latest METAR

178
SAUS70 KWBC 281100 RRD
MTRCLT
METAR KCLT 281052Z 30004KT 10SM FEW060 02/M04 A2998 RMK AO2 SLP154
T00171044


USA.gov is the U.S. government's official web portal to all federal, state and local government web resources and services.